Tokyo, Japan
Current Conditions -  °F | °C
As of 3:30 PM on Sunday 26 Oct 2014 (Local Time) from RJTT Reporting Station
Scattered Clouds Scattered Clouds  
Wind Chill: 24°   Ceiling: Unl
Heat Index: 24°   Visibility: 6mi
Dew Point: 17°   Wind: 10mph
Humidity: 65%   Direction: 190°S
Pressure: 30.03"   Gusts: NA
Location:  35.67°N, 139.77°E
Report Text: RJTT 260630Z 19009KT 9999 FEW020 SCT120 24/17 Q1017 NOSIG RMK 1CU020 3AC120 A3005
Loading
Personal Weather Stations






























Interactive Weather Map
Tropical Storm Tracking
New forecast layout! Learn more

10-Day Weather Forecast

Advertisements
Track Severe Weather on mobile